Time;durP1;ratioP1;P1;durP2;ratioP2;P2;SDS_P1;SDS_P2;PMS_P1;PMS_P2;Temp;Humidity;BMP_temperature;BMP_pressure;BME280_temperature;BME280_humidity;BME280_pressure;Samples;Min_cycle;Max_cycle;Signal;HPM_P1;HPM_P2
2022/03/16 11:01:41;;;;;;;;;;;;;;;13.39;44.88;100586.31;6259460;23;19965;-89
2022/03/16 11:04:07;;;;;;;;;;;;;;;13.32;45.64;100600.47;6244128;23;19916;-88
2022/03/16 11:06:34;;;;;;;;;;;;;;;13.24;45.54;100599.88;6217438;23;19915;-88
2022/03/16 11:09:00;;;;;;;;;;;;;;;13.15;45.74;100605.31;6217804;23;19920;-88
2022/03/16 11:14:11;;;;;;;;;;;;;;;12.97;46.78;100603.00;6221955;23;20014;-88
2022/03/16 11:16:37;;;;;;;;;;;;;;;13.07;46.66;100613.06;6244736;23;19915;-88
2022/03/16 11:19:04;;;;;;;;;;;;;;;13.10;46.68;100622.59;6193570;23;19957;-88
2022/03/16 11:21:34;;;;;;;;;;;;;;;13.02;46.77;100621.19;6218777;23;19919;-88
2022/03/16 11:24:18;;;;;;;;;;;;;;;12.80;46.85;100622.97;6244703;23;19916;-89
2022/03/16 11:27:09;;;;;;;;;;;;;;;12.76;47.47;100634.19;6221484;23;19919;-86
2022/03/16 11:29:53;;;;;;;;;;;;;;;12.58;48.04;100625.50;6243611;23;19916;-88
2022/03/16 11:32:19;;;;;;;;;;;;;;;12.61;47.95;100635.78;6243987;23;20371;-89
2022/03/16 11:34:50;;;;;;;;;;;;;;;12.37;47.37;100631.63;6217182;23;19912;-88
2022/03/16 11:37:15;;;;;;;;;;;;;;;12.18;48.27;100624.91;6243874;23;20335;-89
2022/03/16 11:39:45;;;;;;;;;;;;;;;12.17;48.88;100622.59;6243953;23;19931;-85
2022/03/16 11:42:12;;;;;;;;;;;;;;;12.19;48.53;100617.34;6244201;23;19922;-88
2022/03/16 11:44:38;;;;;;;;;;;;;;;12.25;48.59;100615.63;6243955;23;19923;-88
2022/03/16 11:47:09;;;;;;;;;;;;;;;12.14;48.63;100622.22;6243858;23;19922;-89
2022/03/16 11:49:35;;;;;;;;;;;;;;;11.95;49.55;100616.72;6243410;23;19916;-88
2022/03/16 11:52:02;;;;;;;;;;;;;;;11.82;49.87;100611.06;6244084;23;20307;-87
2022/03/16 11:54:45;;;;;;;;;;;;;;;11.69;50.13;100615.69;6216572;23;19950;-88
2022/03/16 11:57:11;;;;;;;;;;;;;;;11.73;50.43;100615.66;6243768;23;20588;-88
2022/03/16 11:59:40;;;;;;;;;;;;;;;11.68;50.65;100619.69;6243777;23;19915;-89
2022/03/16 12:02:12;;;;;;;;;;;;;;;11.67;50.81;100624.47;6215896;23;19993;-88
2022/03/16 12:04:39;;;;;;;;;;;;;;;11.55;50.91;100627.91;6241760;23;19915;-88
2022/03/16 12:07:06;;;;;;;;;;;;;;;11.54;50.72;100608.88;6242589;23;20212;-88
2022/03/16 12:09:39;;;;;;;;;;;;;;;11.49;50.98;100618.50;6215062;23;20344;-88
2022/03/16 12:14:57;;;;;;;;;;;;;;;11.29;51.34;100617.72;6241205;23;19997;-88
2022/03/16 12:17:23;;;;;;;;;;;;;;;11.38;51.75;100617.16;6241256;23;19922;-88
2022/03/16 12:20:09;;;;;;;;;;;;;;;11.46;51.38;100615.78;6214363;23;20018;-88
2022/03/16 12:22:45;;;;;;;;;;;;;;;11.45;50.58;100614.22;6241103;23;20343;-89
2022/03/16 12:25:26;;;;;;;;;;;;;;;11.45;50.62;100615.00;6240875;23;20006;-89
2022/03/16 12:28:58;;;;;;;;;;;;;;;11.47;50.83;100603.47;6241150;23;19975;-84
2022/03/16 12:30:58;;;;;;;;;;;;;;;11.71;50.88;100613.28;6208242;23;19950;-85
2022/03/16 12:33:27;;;;;;;;;;;;;;;11.86;50.90;100608.19;6242568;23;20260;-85
2022/03/16 12:35:54;;;;;;;;;;;;;;;12.06;50.54;100612.47;6242672;23;19922;-85
2022/03/16 12:38:21;;;;;;;;;;;;;;;12.27;50.34;100605.63;6215800;23;20277;-86
2022/03/16 12:43:31;;;;;;;;;;;;;;;12.59;48.67;100618.72;6244234;23;20348;-88
2022/03/16 12:46:05;;;;;;;;;;;;;;;12.53;47.64;100606.59;6217827;23;20569;-86
2022/03/16 12:48:33;;;;;;;;;;;;;;;12.62;47.48;100604.72;6245132;23;20303;-86
2022/03/16 12:50:59;;;;;;;;;;;;;;;12.84;47.19;100610.53;6218363;23;19918;-86
2022/03/16 12:53:46;;;;;;;;;;;;;;;12.84;47.12;100607.75;6244671;23;19943;-86
2022/03/16 12:56:12;;;;;;;;;;;;;;;12.99;47.10;100603.34;6244523;23;19999;-86
2022/03/16 12:58:38;;;;;;;;;;;;;;;12.93;46.81;100601.53;6243871;23;19918;-87
2022/03/16 13:01:04;;;;;;;;;;;;;;;12.73;47.54;100590.53;6217520;23;19923;-88
2022/03/16 13:03:29;;;;;;;;;;;;;;;12.59;48.17;100597.25;6216256;23;19998;-88
2022/03/16 13:05:54;;;;;;;;;;;;;;;12.63;48.69;100602.72;6216600;23;19926;-88
2022/03/16 13:08:20;;;;;;;;;;;;;;;12.64;48.37;100590.38;6243595;23;20232;-86
2022/03/16 13:13:29;;;;;;;;;;;;;;;12.40;48.81;100572.31;6219932;23;19977;-86
2022/03/16 13:16:00;;;;;;;;;;;;;;;12.31;49.79;100595.19;6243021;23;19958;-88
2022/03/16 13:18:32;;;;;;;;;;;;;;;12.27;50.44;100599.28;6216879;23;19939;-86
2022/03/16 13:21:01;;;;;;;;;;;;;;;12.20;51.13;100607.81;6216790;23;19919;-87
2022/03/16 13:23:28;;;;;;;;;;;;;;;12.09;51.44;100606.03;6216171;23;19922;-87
2022/03/16 13:26:11;;;;;;;;;;;;;;;12.03;51.61;100601.44;6242779;23;19942;-87
2022/03/16 13:28:39;;;;;;;;;;;;;;;11.96;52.37;100607.19;6216772;23;19915;-87
2022/03/16 13:31:07;;;;;;;;;;;;;;;11.86;52.62;100603.41;6216001;23;19999;-87
2022/03/16 13:33:34;;;;;;;;;;;;;;;11.79;52.75;100611.16;6243156;23;19947;-87
2022/03/16 13:36:09;;;;;;;;;;;;;;;11.71;52.95;100593.81;6243298;23;19920;-88
2022/03/16 13:38:37;;;;;;;;;;;;;;;11.56;53.42;100614.81;6244114;23;19919;-87
2022/03/16 13:41:15;;;;;;;;;;;;;;;11.54;53.43;100603.31;6216296;23;20002;-88
2022/03/16 13:43:41;;;;;;;;;;;;;;;11.52;53.63;100617.66;6243910;23;19923;-87
2022/03/16 13:46:14;;;;;;;;;;;;;;;11.39;53.21;100629.84;6243927;23;19919;-88
2022/03/16 13:48:44;;;;;;;;;;;;;;;11.36;53.42;100611.25;6217836;23;19946;-86
2022/03/16 13:51:11;;;;;;;;;;;;;;;11.47;53.81;100629.28;6243195;23;20340;-87
2022/03/16 13:53:40;;;;;;;;;;;;;;;11.40;53.29;100625.84;6243010;23;19918;-87
2022/03/16 13:56:12;;;;;;;;;;;;;;;11.32;53.62;100636.34;6242326;23;19955;-87
2022/03/16 13:58:38;;;;;;;;;;;;;;;11.33;53.40;100637.09;6243047;23;20287;-88
2022/03/16 14:01:04;;;;;;;;;;;;;;;11.29;53.72;100650.25;6242850;23;20379;-87
2022/03/16 14:03:29;;;;;;;;;;;;;;;11.16;53.33;100662.00;6241684;23;19915;-88
2022/03/16 14:05:55;;;;;;;;;;;;;;;11.09;53.50;100653.81;6242876;23;19965;-86
2022/03/16 14:08:21;;;;;;;;;;;;;;;11.01;53.71;100654.38;6242636;23;20346;-87
2022/03/16 14:10:47;;;;;;;;;;;;;;;10.90;54.35;100639.91;6242726;23;19920;-87
2022/03/16 14:13:12;;;;;;;;;;;;;;;10.76;54.89;100654.81;6215698;23;19915;-87
2022/03/16 14:15:38;;;;;;;;;;;;;;;10.81;55.38;100665.44;6215869;23;19954;-87
2022/03/16 14:18:10;;;;;;;;;;;;;;;10.84;55.86;100656.25;6242955;23;20054;-87
2022/03/16 14:20:37;;;;;;;;;;;;;;;10.86;56.13;100653.88;6215566;23;19947;-88
2022/03/16 14:23:03;;;;;;;;;;;;;;;10.68;56.70;100650.59;6216250;23;19954;-87
2022/03/16 14:25:37;;;;;;;;;;;;;;;10.54;57.89;100648.09;6215162;23;19919;-87
2022/03/16 14:28:03;;;;;;;;;;;;;;;10.48;58.42;100644.22;6216896;23;20314;-88
2022/03/16 14:30:29;;;;;;;;;;;;;;;10.52;58.37;100653.25;6190519;23;20252;-87
2022/03/16 14:32:59;;;;;;;;;;;;;;;10.44;58.94;100649.81;6240749;23;19924;-88
2022/03/16 14:35:24;;;;;;;;;;;;;;;10.36;59.33;100636.50;6242620;23;19919;-87
2022/03/16 14:37:50;;;;;;;;;;;;;;;10.31;59.49;100640.56;6242928;23;20370;-87
2022/03/16 14:40:18;;;;;;;;;;;;;;;10.22;59.80;100635.53;6242389;23;19958;-88
2022/03/16 14:42:44;;;;;;;;;;;;;;;10.26;60.08;100639.03;6216322;23;19911;-87
2022/03/16 14:45:10;;;;;;;;;;;;;;;10.25;60.00;100637.47;6242732;23;20325;-87
2022/03/16 14:47:35;;;;;;;;;;;;;;;10.16;59.40;100645.50;6240619;23;19919;-87
2022/03/16 14:50:01;;;;;;;;;;;;;;;10.11;59.66;100645.94;6242972;23;19919;-87
2022/03/16 14:52:26;;;;;;;;;;;;;;;10.07;60.12;100655.53;6215812;23;19912;-86
2022/03/16 14:54:52;;;;;;;;;;;;;;;10.01;59.57;100658.00;6243334;23;19969;-87
2022/03/16 14:57:19;;;;;;;;;;;;;;;10.05;59.95;100669.81;6242513;23;19920;-87
2022/03/16 14:59:45;;;;;;;;;;;;;;;10.10;59.54;100676.88;6243452;23;19954;-87
2022/03/16 15:02:10;;;;;;;;;;;;;;;10.08;59.96;100680.06;6216109;23;19915;-92
2022/03/16 15:04:36;;;;;;;;;;;;;;;10.09;59.77;100673.31;6242495;23;20604;-86
2022/03/16 15:07:01;;;;;;;;;;;;;;;10.03;59.45;100680.53;6243808;23;19930;-86
2022/03/16 15:09:27;;;;;;;;;;;;;;;9.95;59.64;100681.06;6243696;23;19920;-79
2022/03/16 15:11:52;;;;;;;;;;;;;;;9.92;59.79;100671.56;6243333;23;19950;-81
2022/03/16 15:14:18;;;;;;;;;;;;;;;9.86;60.23;100669.69;6243276;23;19959;-80
2022/03/16 15:16:43;;;;;;;;;;;;;;;9.88;60.45;100678.38;6243782;23;20247;-80
2022/03/16 15:19:09;;;;;;;;;;;;;;;9.90;60.26;100682.31;6243473;23;20266;-80
2022/03/16 15:21:35;;;;;;;;;;;;;;;9.84;60.27;100678.41;6215789;23;20354;-80
2022/03/16 15:24:01;;;;;;;;;;;;;;;9.84;60.25;100689.50;6216779;23;19915;-80
2022/03/16 15:26:26;;;;;;;;;;;;;;;9.82;60.43;100681.63;6242849;23;19922;-79
2022/03/16 15:28:52;;;;;;;;;;;;;;;9.86;60.31;100676.03;6242767;23;19966;-80
2022/03/16 15:31:19;;;;;;;;;;;;;;;9.86;60.10;100692.66;6242062;23;20312;-80
2022/03/16 15:33:44;;;;;;;;;;;;;;;9.77;60.42;100695.13;6242548;23;19925;-79
2022/03/16 15:36:10;;;;;;;;;;;;;;;9.73;60.80;100688.88;6242665;23;19942;-80
2022/03/16 15:38:36;;;;;;;;;;;;;;;9.75;60.82;100692.78;6242717;23;19915;-80
2022/03/16 15:43:45;;;;;;;;;;;;;;;9.76;60.66;100715.72;6243271;23;19922;-80
2022/03/16 15:46:12;;;;;;;;;;;;;;;9.68;60.97;100728.09;6243042;23;19998;-79
2022/03/16 15:48:38;;;;;;;;;;;;;;;9.65;60.87;100737.25;6216653;23;19916;-80
2022/03/16 15:51:03;;;;;;;;;;;;;;;9.60;61.22;100748.78;6243208;23;19916;-80
2022/03/16 15:53:29;;;;;;;;;;;;;;;9.59;61.55;100745.22;6215107;23;19973;-80
2022/03/16 15:55:58;;;;;;;;;;;;;;;9.59;61.42;100755.50;6243351;23;20371;-80
2022/03/16 15:58:24;;;;;;;;;;;;;;;9.57;61.37;100757.91;6244012;23;19923;-80
2022/03/16 16:00:49;;;;;;;;;;;;;;;9.58;61.53;100753.94;6217883;23;19912;-80
2022/03/16 16:03:15;;;;;;;;;;;;;;;9.52;61.32;100736.19;6244505;23;19961;-80
2022/03/16 16:05:42;;;;;;;;;;;;;;;9.49;61.77;100751.66;6244290;23;19916;-80
2022/03/16 16:08:09;;;;;;;;;;;;;;;9.43;61.97;100752.50;6243322;23;21386;-80
2022/03/16 16:10:34;;;;;;;;;;;;;;;9.41;62.09;100757.69;6244319;23;19923;-80
2022/03/16 16:13:00;;;;;;;;;;;;;;;9.30;62.39;100753.03;6244388;23;20260;-80
2022/03/16 16:15:27;;;;;;;;;;;;;;;9.28;62.84;100762.97;6243615;23;19915;-80
2022/03/16 16:17:52;;;;;;;;;;;;;;;9.28;63.06;100768.50;6244222;23;19912;-80
2022/03/16 16:20:22;;;;;;;;;;;;;;;9.25;62.86;100772.88;6244180;23;19922;-80
2022/03/16 16:22:48;;;;;;;;;;;;;;;9.27;63.12;100778.78;6244090;23;19916;-80
2022/03/16 16:25:13;;;;;;;;;;;;;;;9.27;63.18;100778.00;6244879;23;19915;-80
2022/03/16 16:27:39;;;;;;;;;;;;;;;9.24;62.81;100785.16;6247981;23;20344;-80
2022/03/16 16:30:18;;;;;;;;;;;;;;;9.27;62.79;100784.31;6247558;23;19915;-80
2022/03/16 16:32:47;;;;;;;;;;;;;;;9.21;62.38;100783.19;6247276;23;19931;-80
2022/03/16 16:35:13;;;;;;;;;;;;;;;9.18;62.30;100786.75;6221516;23;20243;-80
2022/03/16 16:37:39;;;;;;;;;;;;;;;9.15;62.68;100797.88;6247428;23;19998;-80
2022/03/16 16:40:04;;;;;;;;;;;;;;;9.12;62.55;100791.19;6220456;23;19923;-80
2022/03/16 16:45:14;;;;;;;;;;;;;;;9.07;62.42;100801.91;6220665;23;19915;-80
2022/03/16 16:47:40;;;;;;;;;;;;;;;9.05;62.70;100805.09;6243594;23;19911;-80
2022/03/16 16:50:10;;;;;;;;;;;;;;;9.03;62.97;100809.44;6243581;23;20005;-81
2022/03/16 16:52:35;;;;;;;;;;;;;;;9.01;62.91;100804.34;6243170;23;19911;-80
2022/03/16 16:55:01;;;;;;;;;;;;;;;9.02;62.97;100805.13;6243392;23;20045;-81
2022/03/16 16:57:27;;;;;;;;;;;;;;;8.99;63.10;100809.47;6243364;23;20359;-80
2022/03/16 16:59:52;;;;;;;;;;;;;;;8.97;63.31;100809.09;6216712;23;19915;-81
2022/03/16 17:02:18;;;;;;;;;;;;;;;8.98;63.63;100813.44;6243431;23;19915;-80
2022/03/16 17:04:43;;;;;;;;;;;;;;;8.98;63.53;100818.97;6242679;23;19920;-80
2022/03/16 17:07:09;;;;;;;;;;;;;;;8.96;63.32;100818.59;6216886;23;20337;-80
2022/03/16 17:09:34;;;;;;;;;;;;;;;8.94;63.71;100826.50;6243134;23;19922;-81
2022/03/16 17:11:59;;;;;;;;;;;;;;;8.96;63.52;100821.38;6243564;23;19915;-81
2022/03/16 17:14:25;;;;;;;;;;;;;;;8.97;63.47;100831.25;6243017;23;19993;-81
2022/03/16 17:16:51;;;;;;;;;;;;;;;8.98;63.57;100826.50;6243015;23;20339;-80
2022/03/16 17:19:16;;;;;;;;;;;;;;;9.08;63.55;100826.41;6243219;23;20217;-79
2022/03/16 17:21:42;;;;;;;;;;;;;;;9.10;63.45;100828.78;6243060;23;20308;-79
2022/03/16 17:24:07;;;;;;;;;;;;;;;9.11;63.41;100831.13;6243106;23;19911;-79
2022/03/16 17:26:35;;;;;;;;;;;;;;;9.12;63.50;100838.25;6213054;23;19944;-79
2022/03/16 17:29:01;;;;;;;;;;;;;;;9.14;63.45;100838.59;6241767;23;20233;-80
2022/03/16 17:31:27;;;;;;;;;;;;;;;9.19;63.37;100832.63;6236657;23;19919;-80
2022/03/16 17:33:54;;;;;;;;;;;;;;;9.15;63.59;100837.41;6241569;23;19959;-79
2022/03/16 17:36:20;;;;;;;;;;;;;;;9.16;63.69;100835.44;6215239;23;19950;-79
2022/03/16 17:38:45;;;;;;;;;;;;;;;9.12;63.56;100841.00;6215062;23;19920;-79
2022/03/16 17:46:38;;;;;;;;;;;;;;;9.16;63.60;100838.19;6241495;23;20263;-79
2022/03/16 17:49:06;;;;;;;;;;;;;;;9.19;63.72;100837.38;6240348;23;19915;-79
2022/03/16 17:51:32;;;;;;;;;;;;;;;9.14;63.83;100846.91;6241488;23;19920;-79
2022/03/16 17:53:58;;;;;;;;;;;;;;;9.19;63.88;100845.69;6239757;23;19915;-79
2022/03/16 17:59:08;;;;;;;;;;;;;;;9.16;64.27;100850.06;6240166;23;20268;-79
2022/03/16 18:01:34;;;;;;;;;;;;;;;9.18;64.19;100842.13;6239466;23;20390;-79
2022/03/16 18:04:01;;;;;;;;;;;;;;;9.18;64.56;100846.91;6213314;23;19915;-79
2022/03/16 18:06:27;;;;;;;;;;;;;;;9.19;63.96;100842.91;6241445;23;19919;-79
2022/03/16 18:08:52;;;;;;;;;;;;;;;9.14;64.40;100846.91;6241867;23;20326;-79
2022/03/16 18:14:01;;;;;;;;;;;;;;;9.06;64.66;100833.56;6214639;23;19924;-78
2022/03/16 18:16:27;;;;;;;;;;;;;;;9.05;64.99;100854.13;6214481;23;20482;-79
2022/03/16 18:18:53;;;;;;;;;;;;;;;9.08;65.02;100851.31;6242018;23;19998;-79
2022/03/16 18:21:18;;;;;;;;;;;;;;;9.10;64.68;100851.69;6241320;23;19950;-79
2022/03/16 18:23:45;;;;;;;;;;;;;;;9.12;64.75;100852.06;6214991;23;19919;-79
2022/03/16 18:26:14;;;;;;;;;;;;;;;9.19;64.29;100854.00;6241017;23;19919;-79
2022/03/16 18:28:39;;;;;;;;;;;;;;;9.19;64.24;100854.00;6240588;23;20018;-79
2022/03/16 18:31:04;;;;;;;;;;;;;;;9.20;64.15;100856.38;6241571;23;19954;-79
2022/03/16 18:33:31;;;;;;;;;;;;;;;9.17;64.26;100851.66;6213385;23;20301;-79
2022/03/16 18:35:56;;;;;;;;;;;;;;;9.17;64.27;100850.84;6241787;23;19916;-79
2022/03/16 18:38:22;;;;;;;;;;;;;;;9.16;64.29;100855.59;6240890;23;20006;-79
2022/03/16 18:40:47;;;;;;;;;;;;;;;9.15;64.13;100867.06;6240243;23;20359;-79
2022/03/16 18:43:13;;;;;;;;;;;;;;;9.10;64.65;100862.00;6241657;23;19958;-79
2022/03/16 18:45:43;;;;;;;;;;;;;;;9.04;64.94;100864.41;6241425;23;19915;-78
2022/03/16 18:48:08;;;;;;;;;;;;;;;9.01;64.97;100867.97;6241921;23;20018;-79
2022/03/16 18:50:36;;;;;;;;;;;;;;;8.96;65.12;100867.63;6214484;23;19919;-79
2022/03/16 18:53:01;;;;;;;;;;;;;;;8.97;64.88;100881.06;6241216;23;20327;-78
2022/03/16 18:55:28;;;;;;;;;;;;;;;8.99;65.02;100878.66;6240719;23;19919;-79
2022/03/16 18:57:54;;;;;;;;;;;;;;;8.98;65.02;100871.53;6241741;23;19927;-79
2022/03/16 19:00:19;;;;;;;;;;;;;;;8.99;65.43;100877.88;6214452;23;19915;-79
2022/03/16 19:02:45;;;;;;;;;;;;;;;8.94;65.77;100881.09;6241125;23;19915;-79
2022/03/16 19:05:10;;;;;;;;;;;;;;;8.93;66.11;100883.06;6214551;23;19920;-79
2022/03/16 19:07:36;;;;;;;;;;;;;;;8.92;66.28;100878.72;6241245;23;20332;-79
2022/03/16 19:10:01;;;;;;;;;;;;;;;8.87;66.37;100882.69;6240742;23;19920;-79
2022/03/16 19:15:11;;;;;;;;;;;;;;;8.84;66.96;100893.78;6239812;23;19945;-79
2022/03/16 19:17:38;;;;;;;;;;;;;;;8.79;67.27;100880.38;6209736;23;20332;-79
2022/03/16 19:20:04;;;;;;;;;;;;;;;8.73;67.80;100891.09;6212479;23;20123;-79
2022/03/16 19:22:30;;;;;;;;;;;;;;;8.73;67.83;100895.81;6238887;23;19919;-79
2022/03/16 19:24:55;;;;;;;;;;;;;;;8.71;68.02;100896.22;6238121;23;20368;-79
2022/03/16 19:27:22;;;;;;;;;;;;;;;8.69;68.17;100898.63;6238625;23;20343;-79
2022/03/16 19:29:47;;;;;;;;;;;;;;;8.67;68.44;100897.44;6238642;23;20265;-79
2022/03/16 19:32:14;;;;;;;;;;;;;;;8.65;68.75;100897.06;6237098;23;19919;-79
2022/03/16 19:34:39;;;;;;;;;;;;;;;8.64;68.88;100887.19;6239152;23;19919;-79
2022/03/16 19:37:04;;;;;;;;;;;;;;;8.63;68.92;100883.63;6212239;23;20256;-79
2022/03/16 19:39:30;;;;;;;;;;;;;;;8.62;69.27;100897.84;6237339;23;19954;-78
2022/03/16 19:41:56;;;;;;;;;;;;;;;8.62;68.98;100886.78;6237832;23;19961;-79
2022/03/16 19:44:21;;;;;;;;;;;;;;;8.62;69.38;100893.09;6212474;23;20007;-79
2022/03/16 19:46:48;;;;;;;;;;;;;;;8.62;69.30;100893.09;6239421;23;19968;-79
2022/03/16 19:49:14;;;;;;;;;;;;;;;8.64;69.42;100898.25;6238348;23;20002;-79
2022/03/16 19:51:41;;;;;;;;;;;;;;;8.60;69.66;100901.03;6212077;23;19915;-80
2022/03/16 19:54:07;;;;;;;;;;;;;;;8.58;69.84;100908.13;6237583;23;20483;-79
2022/03/16 19:56:32;;;;;;;;;;;;;;;8.57;69.82;100906.56;6210843;23;19926;-80
2022/03/16 19:58:58;;;;;;;;;;;;;;;8.56;70.20;100911.31;6239615;23;19969;-79
2022/03/16 20:01:23;;;;;;;;;;;;;;;8.54;70.11;100910.13;6238806;23;20026;-78
2022/03/16 20:03:49;;;;;;;;;;;;;;;8.53;70.17;100917.66;6239238;23;19919;-79
2022/03/16 20:06:15;;;;;;;;;;;;;;;8.51;70.13;100897.09;6212597;23;19916;-79
2022/03/16 20:08:40;;;;;;;;;;;;;;;8.50;70.10;100909.34;6237846;23;20292;-79
2022/03/16 20:11:06;;;;;;;;;;;;;;;8.48;70.05;100920.03;6239627;23;20268;-79
2022/03/16 20:13:31;;;;;;;;;;;;;;;8.49;70.07;100922.41;6212494;23;19920;-79
2022/03/16 20:15:56;;;;;;;;;;;;;;;8.47;70.24;100924.00;6239803;23;20337;-79
2022/03/16 20:18:23;;;;;;;;;;;;;;;8.45;69.97;100926.38;6239930;23;20000;-78
2022/03/16 20:20:51;;;;;;;;;;;;;;;8.42;69.82;100927.94;6240101;23;20018;-79
2022/03/16 20:23:18;;;;;;;;;;;;;;;8.40;69.67;100931.13;6239847;23;20627;-78
2022/03/16 20:25:45;;;;;;;;;;;;;;;8.41;69.62;100926.41;6211782;23;20399;-79
2022/03/16 20:28:11;;;;;;;;;;;;;;;8.40;69.52;100936.66;6239490;23;19920;-80
2022/03/16 20:30:37;;;;;;;;;;;;;;;8.37;69.50;100931.91;6241389;23;19939;-79
2022/03/16 20:33:03;;;;;;;;;;;;;;;8.34;69.65;100923.63;6243313;23;19911;-79
2022/03/16 20:35:28;;;;;;;;;;;;;;;8.27;69.79;100920.88;6243425;23;19928;-78
2022/03/16 20:37:53;;;;;;;;;;;;;;;8.18;70.42;100924.06;6216684;23;19973;-79
2022/03/16 20:40:19;;;;;;;;;;;;;;;8.06;70.67;100927.25;6243632;23;19915;-80
2022/03/16 20:42:44;;;;;;;;;;;;;;;7.97;70.95;100930.41;6215837;23;19927;-79
2022/03/16 20:45:12;;;;;;;;;;;;;;;7.89;71.58;100936.34;6243852;23;19920;-78
2022/03/16 20:47:38;;;;;;;;;;;;;;;7.79;71.53;100939.94;6216458;23;19994;-79
2022/03/16 20:50:04;;;;;;;;;;;;;;;7.73;72.29;100936.75;6191933;23;19966;-78
2022/03/16 20:52:31;;;;;;;;;;;;;;;7.66;72.80;100933.22;6243251;23;19916;-79
2022/03/16 20:54:59;;;;;;;;;;;;;;;7.61;73.20;100928.09;6217589;23;19916;-78
2022/03/16 20:57:24;;;;;;;;;;;;;;;7.56;73.44;100931.28;6243272;23;19924;-79
2022/03/16 21:02:34;;;;;;;;;;;;;;;7.44;73.97;100930.47;6243502;23;19942;-78
2022/03/16 21:05:00;;;;;;;;;;;;;;;7.39;73.86;100936.41;6244746;23;20336;-79
2022/03/16 21:07:27;;;;;;;;;;;;;;;7.36;74.22;100944.66;6244908;23;19922;-79
2022/03/16 21:09:53;;;;;;;;;;;;;;;7.26;74.84;100954.50;6218694;23;19911;-78
2022/03/16 21:12:19;;;;;;;;;;;;;;;7.22;74.42;100955.69;6217153;23;19915;-79
2022/03/16 21:14:45;;;;;;;;;;;;;;;7.20;74.62;100960.81;6244727;23;20239;-79
2022/03/16 21:17:10;;;;;;;;;;;;;;;7.13;75.20;100960.78;6244035;23;20010;-79
2022/03/16 21:19:36;;;;;;;;;;;;;;;7.06;75.65;100958.81;6244561;23;19915;-79
2022/03/16 21:22:03;;;;;;;;;;;;;;;7.00;75.81;100955.63;6244613;23;19926;-78
2022/03/16 21:24:31;;;;;;;;;;;;;;;6.95;76.43;100958.78;6244605;23;19957;-79
2022/03/16 21:26:56;;;;;;;;;;;;;;;6.96;77.00;100965.88;6244804;23;19911;-79
2022/03/16 21:29:23;;;;;;;;;;;;;;;6.85;77.40;100951.25;6244761;23;19919;-79
2022/03/16 21:31:48;;;;;;;;;;;;;;;6.78;77.71;100953.22;6244570;23;20630;-79
2022/03/16 21:34:14;;;;;;;;;;;;;;;6.72;77.68;100952.78;6244953;23;19919;-79
2022/03/16 21:36:39;;;;;;;;;;;;;;;6.66;77.94;100964.59;6217217;23;19916;-78
2022/03/16 21:39:05;;;;;;;;;;;;;;;6.65;77.78;100963.00;6218673;23;19919;-78
2022/03/16 21:44:24;;;;;;;;;;;;;;;6.70;79.15;100973.66;6244212;23;20518;-79
2022/03/16 21:46:53;;;;;;;;;;;;;;;6.70;79.22;100976.44;6244917;23;19926;-79
2022/03/16 21:49:31;;;;;;;;;;;;;;;6.67;79.50;100982.72;6245201;23;20328;-79
2022/03/16 21:52:00;;;;;;;;;;;;;;;6.63;79.72;100982.72;6220610;23;19915;-79
2022/03/16 21:54:26;;;;;;;;;;;;;;;6.59;79.58;100984.66;6218489;23;19919;-79
2022/03/16 21:56:51;;;;;;;;;;;;;;;6.53;79.92;100981.47;6244832;23;19920;-79
2022/03/16 21:59:17;;;;;;;;;;;;;;;6.47;80.08;100977.50;6244277;23;19958;-79
2022/03/16 22:01:45;;;;;;;;;;;;;;;6.39;81.25;100986.91;6243883;23;19916;-79
2022/03/16 22:04:13;;;;;;;;;;;;;;;6.32;81.95;100984.13;6244871;23;19919;-79
2022/03/16 22:06:40;;;;;;;;;;;;;;;6.29;82.42;100993.16;6244633;23;20252;-79
2022/03/16 22:09:09;;;;;;;;;;;;;;;6.23;82.29;100994.69;6244857;23;20030;-79
2022/03/16 22:11:34;;;;;;;;;;;;;;;6.18;82.85;100981.28;6216801;23;19994;-79
2022/03/16 22:14:00;;;;;;;;;;;;;;;6.14;83.44;100993.44;6217694;23;20413;-79
2022/03/16 22:16:26;;;;;;;;;;;;;;;6.08;83.83;100987.50;6217435;23;19990;-79
2022/03/16 22:18:51;;;;;;;;;;;;;;;6.08;84.45;100993.00;6243455;23;19920;-79
2022/03/16 22:21:25;;;;;;;;;;;;;;;6.07;84.75;100994.97;6244820;23;19954;-79
2022/03/16 22:23:52;;;;;;;;;;;;;;;6.06;84.44;100996.16;6245070;23;19915;-79
2022/03/16 22:26:17;;;;;;;;;;;;;;;6.04;84.87;101000.47;6244772;23;19969;-79
2022/03/16 22:28:43;;;;;;;;;;;;;;;6.01;85.31;100995.72;6244111;23;20291;-79
2022/03/16 22:31:08;;;;;;;;;;;;;;;5.98;85.11;100999.25;6244245;23;19915;-78
2022/03/16 22:33:34;;;;;;;;;;;;;;;5.95;86.15;101000.78;6244246;23;19916;-78
2022/03/16 22:35:59;;;;;;;;;;;;;;;5.93;85.61;100996.84;6244332;23;19991;-78
2022/03/16 22:38:24;;;;;;;;;;;;;;;5.87;84.98;100995.59;6244157;23;19919;-78
2022/03/16 22:40:50;;;;;;;;;;;;;;;5.78;86.03;100989.63;6216165;23;20364;-78
2022/03/16 22:43:16;;;;;;;;;;;;;;;5.76;86.86;100991.97;6243454;23;19920;-78
2022/03/16 22:45:42;;;;;;;;;;;;;;;5.73;87.35;101004.53;6243779;23;20348;-78
2022/03/16 22:48:07;;;;;;;;;;;;;;;5.70;87.71;100993.50;6244133;23;19927;-78
2022/03/16 22:50:33;;;;;;;;;;;;;;;5.69;88.40;101000.16;6243470;23;19930;-78
2022/03/16 22:52:59;;;;;;;;;;;;;;;5.66;88.69;100993.47;6217685;23;19923;-78
2022/03/16 22:55:24;;;;;;;;;;;;;;;5.62;89.31;100985.16;6217915;23;20254;-78
2022/03/16 22:57:50;;;;;;;;;;;;;;;5.60;89.69;100987.50;6244136;23;19916;-78
2022/03/16 23:00:24;;;;;;;;;;;;;;;5.54;89.31;100989.00;6244551;23;19919;-79
2022/03/16 23:02:50;;;;;;;;;;;;;;;5.51;88.80;101002.75;6244242;23;19923;-78
2022/03/16 23:05:15;;;;;;;;;;;;;;;5.47;89.76;101001.94;6244366;23;19920;-79
2022/03/16 23:07:41;;;;;;;;;;;;;;;5.41;89.85;101000.69;6243949;23;19928;-79
2022/03/16 23:10:07;;;;;;;;;;;;;;;5.37;89.48;101017.19;6244054;23;19919;-78
2022/03/16 23:12:33;;;;;;;;;;;;;;;5.31;89.26;101018.69;6243855;23;20255;-79
2022/03/16 23:14:59;;;;;;;;;;;;;;;5.26;88.85;101018.25;6244285;23;19939;-78
2022/03/16 23:17:24;;;;;;;;;;;;;;;5.13;89.58;101020.47;6243704;23;20278;-79
2022/03/16 23:19:50;;;;;;;;;;;;;;;5.14;89.21;101019.28;6243306;23;19941;-78
2022/03/16 23:22:15;;;;;;;;;;;;;;;5.12;91.96;101002.38;6243785;23;19919;-78
2022/03/16 23:24:40;;;;;;;;;;;;;;;5.10;93.17;101026.69;6243014;23;19925;-78
2022/03/16 23:27:06;;;;;;;;;;;;;;;5.08;93.57;101015.28;6216964;23;19918;-79
2022/03/16 23:29:31;;;;;;;;;;;;;;;5.05;93.81;101030.59;6243582;23;19920;-78
2022/03/16 23:31:57;;;;;;;;;;;;;;;5.04;94.33;101028.22;6243625;23;19998;-78
2022/03/16 23:34:22;;;;;;;;;;;;;;;5.02;94.54;101022.28;6243864;23;19983;-79
2022/03/16 23:36:48;;;;;;;;;;;;;;;5.00;94.73;101022.69;6243677;23;19924;-79
2022/03/16 23:39:13;;;;;;;;;;;;;;;4.95;94.31;101014.75;6216921;23;19919;-78
2022/03/16 23:41:38;;;;;;;;;;;;;;;4.94;93.56;101012.38;6215801;23;19915;-79
2022/03/16 23:44:04;;;;;;;;;;;;;;;4.88;93.42;101016.63;6192092;23;20455;-79
2022/03/16 23:46:30;;;;;;;;;;;;;;;4.83;93.55;101025.19;6243101;23;19911;-78
2022/03/16 23:48:56;;;;;;;;;;;;;;;4.79;93.34;101038.09;6217482;23;19919;-78
2022/03/16 23:51:21;;;;;;;;;;;;;;;4.69;94.70;101045.84;6243856;23;19951;-78
2022/03/16 23:53:47;;;;;;;;;;;;;;;4.65;94.37;101045.00;6216579;23;19926;-78
2022/03/16 23:56:12;;;;;;;;;;;;;;;4.56;95.40;101030.75;6243292;23;19911;-78
2022/03/16 23:58:37;;;;;;;;;;;;;;;4.52;97.19;101035.41;6243531;23;19916;-78
